Time;durP1;ratioP1;P1;durP2;ratioP2;P2;SDS_P1;SDS_P2;PMS_P1;PMS_P2;Temp;Humidity;BMP_temperature;BMP_pressure;BME280_temperature;BME280_humidity;BME280_pressure;Samples;Min_cycle;Max_cycle;Signal;HPM_P1;HPM_P2
2022/08/19 00:01:37;;;;;;;21.43;16.27;;;;;;;;;;5050957;28;20550;-72
2022/08/19 00:04:05;;;;;;;16.83;13.73;;;;;;;;;;5050906;28;20221;-72
2022/08/19 00:06:33;;;;;;;15.73;13.70;;;;;;;;;;5050195;28;20203;-72
2022/08/19 00:09:00;;;;;;;18.00;15.30;;;;;;;;;;5047971;28;20309;-73
2022/08/19 00:11:27;;;;;;;18.33;15.30;;;;;;;;;;5051125;28;20198;-72
2022/08/19 00:13:54;;;;;;;21.83;16.50;;;;;;;;;;5050722;28;20211;-72
2022/08/19 00:16:22;;;;;;;17.40;14.40;;;;;;;;;;5041868;28;20278;-73
2022/08/19 00:18:52;;;;;;;17.07;14.53;;;;;;;;;;5065540;28;20191;-73
2022/08/19 00:21:18;;;;;;;17.27;14.40;;;;;;;;;;5066037;28;20193;-72
2022/08/19 00:24:03;;;;;;;17.03;13.83;;;;;;;;;;5032433;28;20805;-73
2022/08/19 00:26:29;;;;;;;20.63;16.73;;;;;;;;;;5050905;28;20270;-72
2022/08/19 00:28:56;;;;;;;20.10;15.97;;;;;;;;;;5050206;28;20191;-72
2022/08/19 00:31:24;;;;;;;20.30;16.10;;;;;;;;;;5050768;28;20179;-72
2022/08/19 00:33:51;;;;;;;16.67;15.00;;;;;;;;;;5050408;28;20593;-72
2022/08/19 00:36:18;;;;;;;15.40;13.47;;;;;;;;;;5050258;28;20274;-72
2022/08/19 00:38:46;;;;;;;15.87;14.17;;;;;;;;;;5050409;28;20195;-72
2022/08/19 00:41:14;;;;;;;16.90;15.23;;;;;;;;;;5032819;28;20269;-72
2022/08/19 00:43:41;;;;;;;21.10;16.77;;;;;;;;;;5032347;28;20191;-72
2022/08/19 00:46:07;;;;;;;16.20;13.93;;;;;;;;;;5032959;28;20670;-72
2022/08/19 00:48:35;;;;;;;17.73;15.57;;;;;;;;;;5032400;28;20209;-72
2022/08/19 00:51:03;;;;;;;17.30;14.33;;;;;;;;;;5062186;28;20187;-72
2022/08/19 00:53:30;;;;;;;15.20;13.07;;;;;;;;;;5058457;28;20226;-72
2022/08/19 00:55:57;;;;;;;14.67;12.80;;;;;;;;;;5065348;28;20266;-73
2022/08/19 00:58:25;;;;;;;14.87;12.50;;;;;;;;;;5057840;28;20647;-73
2022/08/19 01:00:52;;;;;;;15.10;13.50;;;;;;;;;;5065318;28;20190;-74
2022/08/19 01:03:20;;;;;;;15.50;13.03;;;;;;;;;;5050031;28;20195;-72
2022/08/19 01:05:47;;;;;;;16.53;13.97;;;;;;;;;;5043685;28;20780;-72
2022/08/19 01:08:15;;;;;;;16.40;14.60;;;;;;;;;;5048594;28;20249;-72
2022/08/19 01:10:43;;;;;;;17.63;14.10;;;;;;;;;;5043200;28;20669;-72
2022/08/19 01:13:10;;;;;;;15.57;13.97;;;;;;;;;;5050142;28;20258;-72
2022/08/19 01:15:56;;;;;;;18.47;15.03;;;;;;;;;;5049379;28;20550;-72
2022/08/19 01:18:22;;;;;;;14.73;13.23;;;;;;;;;;5057107;28;20544;-72
2022/08/19 01:20:49;;;;;;;18.57;14.23;;;;;;;;;;5064804;28;20206;-72
2022/08/19 01:23:18;;;;;;;16.50;13.60;;;;;;;;;;5064627;28;20191;-72
2022/08/19 01:25:47;;;;;;;14.27;12.40;;;;;;;;;;5059998;28;20722;-72
2022/08/19 01:28:16;;;;;;;14.47;13.03;;;;;;;;;;5049883;28;20187;-73
2022/08/19 01:30:43;;;;;;;13.20;11.90;;;;;;;;;;5048827;28;20190;-72
2022/08/19 01:33:17;;;;;;;12.97;11.77;;;;;;;;;;5051301;28;20696;-72
2022/08/19 01:35:44;;;;;;;13.70;11.63;;;;;;;;;;5051753;28;20222;-72
2022/08/19 01:38:18;;;;;;;13.33;11.93;;;;;;;;;;5049483;28;20201;-72
2022/08/19 01:40:45;;;;;;;13.27;11.83;;;;;;;;;;5031550;28;20206;-72
2022/08/19 01:43:13;;;;;;;14.47;12.97;;;;;;;;;;5048316;28;20729;-72
2022/08/19 01:45:40;;;;;;;14.20;12.00;;;;;;;;;;5048958;28;20961;-72
2022/08/19 01:48:07;;;;;;;15.33;12.03;;;;;;;;;;5049038;28;20191;-73
2022/08/19 01:50:33;;;;;;;14.77;12.03;;;;;;;;;;5031103;28;20654;-72
2022/08/19 01:53:00;;;;;;;13.60;12.20;;;;;;;;;;5048973;28;20594;-73
2022/08/19 01:55:33;;;;;;;12.70;10.63;;;;;;;;;;5048046;28;20201;-72
2022/08/19 01:58:06;;;;;;;12.63;11.20;;;;;;;;;;5049244;28;20202;-73
2022/08/19 02:00:50;;;;;;;14.63;11.87;;;;;;;;;;5033941;28;20187;-72
2022/08/19 02:03:17;;;;;;;12.53;10.73;;;;;;;;;;5048036;28;20278;-73
2022/08/19 02:05:45;;;;;;;16.03;13.13;;;;;;;;;;5048884;28;20626;-73
2022/08/19 02:08:12;;;;;;;18.67;14.53;;;;;;;;;;5030214;28;20223;-72
2022/08/19 02:10:40;;;;;;;17.47;15.33;;;;;;;;;;5047447;28;20218;-73
2022/08/19 02:13:07;;;;;;;22.23;15.77;;;;;;;;;;5048061;28;20203;-72
2022/08/19 02:15:34;;;;;;;18.50;14.37;;;;;;;;;;5031051;28;20992;-73
2022/08/19 02:18:01;;;;;;;18.13;14.97;;;;;;;;;;5048843;28;20307;-72
2022/08/19 02:20:28;;;;;;;18.43;15.53;;;;;;;;;;5048583;28;20519;-73
2022/08/19 02:22:54;;;;;;;17.20;13.20;;;;;;;;;;5048830;28;20191;-73
2022/08/19 02:25:21;;;;;;;13.93;12.43;;;;;;;;;;5047644;28;20611;-73
2022/08/19 02:27:48;;;;;;;15.27;12.20;;;;;;;;;;5047715;28;20179;-72
2022/08/19 02:30:15;;;;;;;14.07;12.13;;;;;;;;;;5048616;28;20621;-72
2022/08/19 02:32:42;;;;;;;19.60;13.53;;;;;;;;;;5048385;28;20237;-73
2022/08/19 02:35:11;;;;;;;16.77;14.73;;;;;;;;;;5047465;28;20195;-73
2022/08/19 02:40:23;;;;;;;18.00;14.73;;;;;;;;;;5048656;28;20197;-73
2022/08/19 02:42:50;;;;;;;17.27;14.23;;;;;;;;;;5048426;28;20576;-73
2022/08/19 02:45:18;;;;;;;17.40;14.57;;;;;;;;;;5048487;28;20609;-73
2022/08/19 02:47:44;;;;;;;20.03;15.17;;;;;;;;;;5048627;28;20190;-73
2022/08/19 02:50:12;;;;;;;18.87;15.03;;;;;;;;;;5047309;28;20282;-73
2022/08/19 02:52:39;;;;;;;16.70;14.77;;;;;;;;;;5030729;28;20219;-73
2022/08/19 02:55:06;;;;;;;15.43;13.83;;;;;;;;;;5049075;28;20217;-73
2022/08/19 02:57:33;;;;;;;17.10;15.13;;;;;;;;;;5048625;28;20199;-73
2022/08/19 03:00:01;;;;;;;17.67;15.77;;;;;;;;;;5048111;28;20275;-73
2022/08/19 03:02:28;;;;;;;17.37;15.07;;;;;;;;;;5048640;28;20199;-73
2022/08/19 03:04:55;;;;;;;17.57;15.10;;;;;;;;;;5047795;28;20305;-73
2022/08/19 03:07:22;;;;;;;17.17;15.33;;;;;;;;;;5048521;28;20257;-73
2022/08/19 03:09:48;;;;;;;16.10;14.47;;;;;;;;;;5048117;28;20187;-73
2022/08/19 03:12:15;;;;;;;16.00;13.67;;;;;;;;;;5048299;28;20602;-73
2022/08/19 03:14:42;;;;;;;16.23;14.53;;;;;;;;;;5049279;28;20187;-73
2022/08/19 03:17:08;;;;;;;17.30;14.93;;;;;;;;;;5050764;28;20281;-73
2022/08/19 03:19:35;;;;;;;18.23;15.73;;;;;;;;;;5030340;28;20206;-73
2022/08/19 03:22:04;;;;;;;16.13;14.43;;;;;;;;;;5049338;28;20189;-73
2022/08/19 03:24:31;;;;;;;16.33;14.17;;;;;;;;;;5033900;28;20741;-73
2022/08/19 03:26:58;;;;;;;18.13;14.40;;;;;;;;;;5033362;28;20199;-73
2022/08/19 03:29:28;;;;;;;16.60;14.77;;;;;;;;;;5051739;28;20266;-73
2022/08/19 03:31:56;;;;;;;15.43;13.83;;;;;;;;;;5030220;28;20195;-73
2022/08/19 03:34:27;;;;;;;18.97;15.10;;;;;;;;;;5030537;28;20226;-73
2022/08/19 03:36:58;;;;;;;19.57;15.97;;;;;;;;;;5047659;28;20210;-73
2022/08/19 03:39:25;;;;;;;20.70;16.10;;;;;;;;;;5030676;28;20195;-72
2022/08/19 03:42:09;;;;;;;18.87;15.07;;;;;;;;;;5049938;28;20175;-73
2022/08/19 03:44:57;;;;;;;17.20;14.57;;;;;;;;;;5036595;28;20211;-73
2022/08/19 03:47:25;;;;;;;16.77;13.93;;;;;;;;;;5030325;28;20267;-73
2022/08/19 03:49:52;;;;;;;16.87;14.90;;;;;;;;;;5047202;28;20198;-73
2022/08/19 03:52:19;;;;;;;15.77;14.27;;;;;;;;;;5051069;28;20191;-72
2022/08/19 03:54:46;;;;;;;14.63;13.20;;;;;;;;;;5033684;28;20274;-72
2022/08/19 03:57:13;;;;;;;16.47;14.77;;;;;;;;;;5032519;28;20662;-72
2022/08/19 03:59:40;;;;;;;13.80;12.37;;;;;;;;;;5050959;28;20198;-71
2022/08/19 04:02:08;;;;;;;14.90;13.33;;;;;;;;;;5031461;28;20385;-71
2022/08/19 04:04:37;;;;;;;13.90;12.47;;;;;;;;;;5029083;28;20195;-71
2022/08/19 04:10:25;;;;;;;15.43;13.00;;;;;;;;;;5008814;28;20188;-70
2022/08/19 04:13:27;;;;;;;14.37;12.73;;;;;;;;;;5013222;28;20191;-70
2022/08/19 04:15:57;;;;;;;18.53;14.47;;;;;;;;;;5022767;28;20220;-71
2022/08/19 04:19:21;;;;;;;21.53;14.37;;;;;;;;;;5011515;28;20219;-71
2022/08/19 04:21:49;;;;;;;18.83;13.70;;;;;;;;;;5015745;28;20218;-70
2022/08/19 04:24:16;;;;;;;17.90;13.63;;;;;;;;;;5004321;28;20541;-73
2022/08/19 04:27:08;;;;;;;15.43;13.83;;;;;;;;;;5000682;28;20237;-68
2022/08/19 04:30:44;;;;;;;14.60;12.93;;;;;;;;;;5018364;28;20215;-67
2022/08/19 04:34:02;;;;;;;18.93;13.23;;;;;;;;;;5013675;28;20192;-69
2022/08/19 04:36:29;;;;;;;16.37;13.13;;;;;;;;;;5021152;28;20250;-72
2022/08/19 04:38:59;;;;;;;15.23;13.63;;;;;;;;;;5006246;28;20295;-68
2022/08/19 04:45:28;;;;;;;20.47;14.80;;;;;;;;;;4987409;28;20224;-70
2022/08/19 04:48:31;;;;;;;17.63;15.57;;;;;;;;;;4922851;29;20858;-70
2022/08/19 04:51:10;;;;;;;20.10;15.17;;;;;;;;;;4942577;29;20212;-70
2022/08/19 04:54:36;;;;;;;18.97;15.37;;;;;;;;;;4935160;29;20218;-68
2022/08/19 04:57:06;;;;;;;18.53;16.57;;;;;;;;;;4923730;29;20203;-68
2022/08/19 04:59:34;;;;;;;19.87;16.10;;;;;;;;;;4930699;29;20667;-68
2022/08/19 05:02:00;;;;;;;16.60;14.83;;;;;;;;;;4914695;29;20205;-68
2022/08/19 05:04:30;;;;;;;17.97;16.03;;;;;;;;;;4930675;29;20203;-69
2022/08/19 05:06:57;;;;;;;25.10;17.57;;;;;;;;;;4930323;29;20239;-68
2022/08/19 05:09:27;;;;;;;19.90;16.30;;;;;;;;;;4943340;28;20308;-68
2022/08/19 05:12:20;;;;;;;20.17;17.23;;;;;;;;;;4952615;28;20209;-68
2022/08/19 05:15:08;;;;;;;22.33;17.43;;;;;;;;;;4957272;28;20232;-69
2022/08/19 05:17:35;;;;;;;24.50;16.60;;;;;;;;;;4979879;28;20288;-68
2022/08/19 05:23:15;;;;;;;23.47;16.43;;;;;;;;;;4969167;28;20641;-72
2022/08/19 05:25:48;;;;;;;24.10;18.50;;;;;;;;;;4993552;28;20234;-69
2022/08/19 05:28:15;;;;;;;25.67;18.50;;;;;;;;;;5029516;28;20195;-70
2022/08/19 05:30:44;;;;;;;23.47;17.83;;;;;;;;;;5029453;28;20200;-74
2022/08/19 05:33:13;;;;;;;20.30;17.20;;;;;;;;;;5014184;28;20573;-74
2022/08/19 05:35:40;;;;;;;23.03;16.87;;;;;;;;;;5032080;28;20187;-74
2022/08/19 05:38:08;;;;;;;20.60;18.40;;;;;;;;;;5029622;28;20191;-74
2022/08/19 05:40:35;;;;;;;24.70;18.40;;;;;;;;;;5028278;28;20196;-74
2022/08/19 05:43:03;;;;;;;20.23;17.67;;;;;;;;;;5028358;28;20186;-74
2022/08/19 05:45:31;;;;;;;18.43;16.50;;;;;;;;;;5028188;28;20212;-74
2022/08/19 05:47:59;;;;;;;20.10;15.87;;;;;;;;;;5028104;28;20241;-74
2022/08/19 05:50:26;;;;;;;17.10;14.33;;;;;;;;;;5029424;28;20794;-74
2022/08/19 05:52:53;;;;;;;21.57;14.07;;;;;;;;;;5025209;28;20196;-71
2022/08/19 05:55:22;;;;;;;20.70;14.47;;;;;;;;;;5015919;28;20191;-68
2022/08/19 05:57:49;;;;;;;17.40;13.07;;;;;;;;;;5029390;28;20191;-67
2022/08/19 06:00:15;;;;;;;16.20;13.20;;;;;;;;;;5029404;28;20199;-68
2022/08/19 06:03:03;;;;;;;18.13;12.90;;;;;;;;;;5028753;28;20176;-70
2022/08/19 06:05:39;;;;;;;18.13;13.97;;;;;;;;;;5012437;28;20241;-73
2022/08/19 06:08:24;;;;;;;18.27;12.03;;;;;;;;;;5033710;28;20240;-69
2022/08/19 06:11:20;;;;;;;23.27;13.97;;;;;;;;;;5047659;28;20210;-70
2022/08/19 06:13:50;;;;;;;21.90;13.63;;;;;;;;;;5048735;28;20278;-71
2022/08/19 06:16:25;;;;;;;19.63;13.47;;;;;;;;;;5047963;28;20194;-70
2022/08/19 06:19:11;;;;;;;24.20;13.90;;;;;;;;;;5049095;28;20640;-71
2022/08/19 06:21:38;;;;;;;27.87;12.30;;;;;;;;;;5048652;28;20191;-69
2022/08/19 06:24:05;;;;;;;22.87;12.20;;;;;;;;;;5049101;28;20270;-73
2022/08/19 06:26:36;;;;;;;22.70;12.57;;;;;;;;;;5035026;28;20222;-70
2022/08/19 06:29:04;;;;;;;22.67;12.43;;;;;;;;;;5046473;28;20198;-70
2022/08/19 06:31:33;;;;;;;23.63;12.57;;;;;;;;;;5031412;28;20654;-70
2022/08/19 06:34:03;;;;;;;26.67;12.83;;;;;;;;;;5014400;28;20240;-72
2022/08/19 06:36:33;;;;;;;21.40;11.67;;;;;;;;;;5031126;28;20198;-71
2022/08/19 06:39:03;;;;;;;21.30;12.10;;;;;;;;;;5030947;28;20225;-72
2022/08/19 06:41:30;;;;;;;18.33;11.67;;;;;;;;;;5019250;28;20195;-69
2022/08/19 06:43:57;;;;;;;17.33;10.60;;;;;;;;;;5047475;28;20193;-72
2022/08/19 06:46:24;;;;;;;14.23;10.80;;;;;;;;;;5014277;28;20207;-72
2022/08/19 06:48:53;;;;;;;17.00;10.60;;;;;;;;;;5031014;28;20217;-73
2022/08/19 06:51:20;;;;;;;16.80;10.43;;;;;;;;;;5035031;28;20203;-70
2022/08/19 06:53:50;;;;;;;16.03;10.10;;;;;;;;;;5052617;28;20653;-72
2022/08/19 06:56:25;;;;;;;13.33;9.80;;;;;;;;;;5003193;28;20285;-72
2022/08/19 06:59:10;;;;;;;13.60;10.13;;;;;;;;;;5052408;28;20179;-69
2022/08/19 07:01:41;;;;;;;15.40;10.07;;;;;;;;;;5035526;28;20237;-70
2022/08/19 07:04:08;;;;;;;13.40;9.00;;;;;;;;;;5034254;28;20218;-71
2022/08/19 07:06:37;;;;;;;17.27;9.63;;;;;;;;;;5024682;28;20233;-71
2022/08/19 07:09:11;;;;;;;16.47;8.83;;;;;;;;;;5046281;28;20723;-70
2022/08/19 07:11:38;;;;;;;14.93;8.73;;;;;;;;;;5043389;28;20191;-71
2022/08/19 07:14:05;;;;;;;12.03;8.63;;;;;;;;;;5041740;28;20279;-68
2022/08/19 07:16:45;;;;;;;12.23;8.00;;;;;;;;;;5045544;28;20288;-68
2022/08/19 07:19:12;;;;;;;10.87;8.63;;;;;;;;;;5046462;28;20200;-69
2022/08/19 07:21:44;;;;;;;10.73;7.73;;;;;;;;;;5044330;28;20579;-69
2022/08/19 07:24:12;;;;;;;10.93;8.07;;;;;;;;;;5045341;28;20186;-70
2022/08/19 07:26:40;;;;;;;11.87;7.97;;;;;;;;;;5044725;28;20252;-69
2022/08/19 07:29:08;;;;;;;11.27;7.87;;;;;;;;;;5044953;28;20293;-70
2022/08/19 07:31:37;;;;;;;10.13;7.60;;;;;;;;;;5044059;28;21039;-69
2022/08/19 07:34:07;;;;;;;10.43;7.50;;;;;;;;;;5045345;28;20191;-71
2022/08/19 07:36:35;;;;;;;11.90;7.87;;;;;;;;;;5027549;28;20205;-70
2022/08/19 07:39:04;;;;;;;10.20;8.07;;;;;;;;;;5045032;28;20303;-69
2022/08/19 07:41:31;;;;;;;13.33;8.03;;;;;;;;;;5043984;28;20190;-72
2022/08/19 07:44:01;;;;;;;10.13;7.67;;;;;;;;;;5039997;28;20234;-69
2022/08/19 07:46:30;;;;;;;11.40;7.70;;;;;;;;;;5041210;28;20221;-70
2022/08/19 07:48:57;;;;;;;13.77;7.60;;;;;;;;;;5045855;28;20213;-68
2022/08/19 07:51:24;;;;;;;12.57;8.17;;;;;;;;;;5043706;28;20278;-77
2022/08/19 07:54:02;;;;;;;10.40;7.43;;;;;;;;;;5044300;28;20191;-76
2022/08/19 07:56:30;;;;;;;8.83;7.33;;;;;;;;;;5039923;28;20194;-75
2022/08/19 07:58:57;;;;;;;12.67;8.23;;;;;;;;;;5041325;28;20670;-74
2022/08/19 08:01:25;;;;;;;10.87;7.73;;;;;;;;;;5043733;28;20175;-83
2022/08/19 08:09:36;;;;;;;8.80;7.30;;;;;;;;;;5044332;28;20246;-77
2022/08/19 08:12:10;;;;;;;13.57;8.17;;;;;;;;;;5040881;28;20644;-77
2022/08/19 08:14:57;;;;;;;14.13;8.33;;;;;;;;;;5045074;28;20187;-74
2022/08/19 08:17:43;;;;;;;15.17;7.77;;;;;;;;;;5028871;28;20228;-77
2022/08/19 08:20:16;;;;;;;11.57;7.23;;;;;;;;;;5041309;28;20191;-76
2022/08/19 08:25:31;;;;;;;11.50;7.60;;;;;;;;;;5051069;28;20752;-72
2022/08/19 08:28:01;;;;;;;11.07;7.17;;;;;;;;;;5024039;28;20728;-72
2022/08/19 08:30:28;;;;;;;10.53;7.23;;;;;;;;;;5040604;28;20199;-72
2022/08/19 08:32:58;;;;;;;11.60;8.17;;;;;;;;;;5023750;28;20244;-69
2022/08/19 08:35:42;;;;;;;13.03;8.17;;;;;;;;;;5045080;28;20175;-70
2022/08/19 08:38:09;;;;;;;8.77;7.83;;;;;;;;;;5045219;28;20202;-69
2022/08/19 08:40:43;;;;;;;8.57;7.67;;;;;;;;;;5041680;28;20214;-73
2022/08/19 08:43:26;;;;;;;12.43;8.37;;;;;;;;;;5045154;28;20187;-69
2022/08/19 08:46:26;;;;;;;10.50;7.40;;;;;;;;;;5040590;28;20348;-68
2022/08/19 08:49:16;;;;;;;10.20;7.73;;;;;;;;;;5041556;28;20191;-72
2022/08/19 08:52:03;;;;;;;7.97;7.17;;;;;;;;;;5029736;28;20217;-69
2022/08/19 08:54:35;;;;;;;8.73;7.83;;;;;;;;;;5045096;28;20260;-70
2022/08/19 08:57:03;;;;;;;9.87;7.60;;;;;;;;;;5045738;28;20197;-71
2022/08/19 08:59:33;;;;;;;12.03;7.37;;;;;;;;;;5045544;28;20218;-71
2022/08/19 09:02:00;;;;;;;10.27;7.93;;;;;;;;;;5044201;28;20214;-70
2022/08/19 09:04:27;;;;;;;9.50;7.60;;;;;;;;;;5018708;28;20197;-70
2022/08/19 09:06:54;;;;;;;8.90;6.70;;;;;;;;;;5044672;28;20210;-69
2022/08/19 09:09:31;;;;;;;9.60;6.60;;;;;;;;;;5031810;28;20220;-69
2022/08/19 09:12:13;;;;;;;9.10;6.97;;;;;;;;;;5021495;28;20210;-68
2022/08/19 09:14:41;;;;;;;7.10;6.40;;;;;;;;;;5024959;28;20196;-67
2022/08/19 09:17:18;;;;;;;8.60;6.90;;;;;;;;;;5023122;28;20428;-72
2022/08/19 09:19:50;;;;;;;7.90;7.10;;;;;;;;;;5006308;28;20714;-69
2022/08/19 09:22:17;;;;;;;7.87;6.20;;;;;;;;;;5020684;28;20241;-71
2022/08/19 09:24:54;;;;;;;12.63;6.53;;;;;;;;;;5024076;28;20191;-73
2022/08/19 09:27:40;;;;;;;7.80;6.13;;;;;;;;;;5008920;28;20559;-69
2022/08/19 09:30:21;;;;;;;8.50;5.70;;;;;;;;;;5022312;28;20199;-70
2022/08/19 09:32:48;;;;;;;8.00;5.80;;;;;;;;;;5022196;28;20199;-70
2022/08/19 09:35:19;;;;;;;7.93;6.10;;;;;;;;;;5023518;28;20202;-70
2022/08/19 09:37:46;;;;;;;10.23;5.67;;;;;;;;;;5006353;28;20258;-70
2022/08/19 09:40:13;;;;;;;8.47;5.83;;;;;;;;;;5024229;28;20803;-71
2022/08/19 09:42:43;;;;;;;7.90;5.57;;;;;;;;;;5023570;28;20278;-68
2022/08/19 09:45:20;;;;;;;10.03;5.87;;;;;;;;;;5022811;28;20191;-70
2022/08/19 09:47:50;;;;;;;8.23;5.47;;;;;;;;;;5006692;28;20738;-70
2022/08/19 09:50:20;;;;;;;9.37;5.53;;;;;;;;;;5024221;28;20614;-69
2022/08/19 09:52:47;;;;;;;8.87;5.10;;;;;;;;;;5006049;28;20589;-69
2022/08/19 09:55:22;;;;;;;8.97;5.73;;;;;;;;;;5024909;28;20209;-70
2022/08/19 09:57:53;;;;;;;12.40;5.70;;;;;;;;;;5006736;28;20191;-70
2022/08/19 10:00:20;;;;;;;9.17;5.50;;;;;;;;;;4989260;28;20195;-68
2022/08/19 10:02:47;;;;;;;11.30;5.50;;;;;;;;;;5022283;28;20203;-69
2022/08/19 10:08:08;;;;;;;9.63;5.97;;;;;;;;;;5023838;28;20329;-72
2022/08/19 10:10:43;;;;;;;8.70;5.97;;;;;;;;;;5007005;28;20187;-73
2022/08/19 10:13:28;;;;;;;8.13;5.40;;;;;;;;;;5009443;28;20181;-70
2022/08/19 10:15:56;;;;;;;9.13;6.10;;;;;;;;;;5006325;28;20976;-71
2022/08/19 10:18:43;;;;;;;8.50;5.60;;;;;;;;;;5006644;28;20396;-67
2022/08/19 10:21:22;;;;;;;7.50;5.50;;;;;;;;;;5021684;28;20791;-67
2022/08/19 10:23:51;;;;;;;8.63;5.57;;;;;;;;;;5006679;28;20693;-71
2022/08/19 10:26:23;;;;;;;7.03;5.70;;;;;;;;;;5009202;28;21153;-70
2022/08/19 10:29:07;;;;;;;10.53;6.50;;;;;;;;;;5012796;28;20207;-68
2022/08/19 10:31:35;;;;;;;7.90;5.70;;;;;;;;;;5027996;28;20203;-68
2022/08/19 10:34:19;;;;;;;10.47;6.20;;;;;;;;;;5029890;28;20175;-69
2022/08/19 10:36:53;;;;;;;8.33;6.03;;;;;;;;;;5027793;28;20187;-70
2022/08/19 10:39:28;;;;;;;10.67;5.60;;;;;;;;;;5024753;28;20245;-70
2022/08/19 10:41:56;;;;;;;8.60;5.70;;;;;;;;;;5010211;28;20283;-69
2022/08/19 10:44:23;;;;;;;10.00;5.33;;;;;;;;;;5010182;28;20222;-69
2022/08/19 10:46:58;;;;;;;12.93;5.87;;;;;;;;;;5011850;28;20199;-70
2022/08/19 10:49:25;;;;;;;6.93;5.30;;;;;;;;;;5027130;28;20191;-74
2022/08/19 10:57:34;;;;;;;8.40;5.47;;;;;;;;;;5024870;28;20467;-71
2022/08/19 11:00:19;;;;;;;9.40;5.67;;;;;;;;;;4998056;28;20179;-71
2022/08/19 11:02:46;;;;;;;6.00;5.40;;;;;;;;;;4992128;28;20187;-72
2022/08/19 11:05:14;;;;;;;7.70;5.80;;;;;;;;;;4983657;28;20290;-71
2022/08/19 11:07:41;;;;;;;7.93;5.33;;;;;;;;;;5025426;28;20219;-71
2022/08/19 11:10:09;;;;;;;8.50;5.67;;;;;;;;;;5045993;28;20250;-69
2022/08/19 11:12:39;;;;;;;8.83;5.60;;;;;;;;;;5042976;28;20306;-70
2022/08/19 11:15:07;;;;;;;7.83;5.50;;;;;;;;;;5028015;28;20508;-69
2022/08/19 11:17:54;;;;;;;8.57;5.30;;;;;;;;;;5030860;28;20179;-72
2022/08/19 11:20:23;;;;;;;8.43;5.70;;;;;;;;;;5045961;28;20195;-73
2022/08/19 11:22:51;;;;;;;7.53;5.93;;;;;;;;;;5045158;28;20190;-69
2022/08/19 11:25:17;;;;;;;8.90;5.83;;;;;;;;;;5050937;28;20234;-70
2022/08/19 11:27:45;;;;;;;8.07;5.67;;;;;;;;;;5046221;28;20246;-70
2022/08/19 11:30:13;;;;;;;7.20;5.80;;;;;;;;;;5045299;28;20574;-71
2022/08/19 11:32:40;;;;;;;8.30;5.80;;;;;;;;;;5042131;28;20286;-72
2022/08/19 11:35:12;;;;;;;6.10;5.50;;;;;;;;;;5041112;28;20191;-72
2022/08/19 11:37:40;;;;;;;9.63;5.63;;;;;;;;;;5046556;28;20209;-70
2022/08/19 11:40:07;;;;;;;9.90;5.63;;;;;;;;;;5046331;28;20272;-68
2022/08/19 11:45:25;;;;;;;6.53;5.80;;;;;;;;;;5045770;28;20197;-69
2022/08/19 11:48:09;;;;;;;8.70;5.80;;;;;;;;;;5044749;28;20572;-69
2022/08/19 11:50:36;;;;;;;6.53;5.83;;;;;;;;;;5028663;28;20202;-72
2022/08/19 11:53:09;;;;;;;7.23;5.43;;;;;;;;;;5045841;28;20277;-71
2022/08/19 11:55:38;;;;;;;7.87;5.77;;;;;;;;;;5044677;28;20604;-72
2022/08/19 11:58:22;;;;;;;8.70;5.40;;;;;;;;;;5045515;28;20212;-71
2022/08/19 12:00:49;;;;;;;6.30;5.40;;;;;;;;;;5049587;28;20195;-70
2022/08/19 12:03:16;;;;;;;11.37;6.17;;;;;;;;;;5051106;28;20245;-71
2022/08/19 12:05:43;;;;;;;7.90;5.90;;;;;;;;;;5050976;28;20991;-70
2022/08/19 12:08:11;;;;;;;17.80;6.63;;;;;;;;;;5051086;28;20235;-70
2022/08/19 12:10:38;;;;;;;11.83;5.53;;;;;;;;;;5051117;28;20187;-70
2022/08/19 12:13:06;;;;;;;9.00;5.70;;;;;;;;;;5051101;28;20191;-70
2022/08/19 12:15:36;;;;;;;8.63;5.67;;;;;;;;;;5033418;28;20550;-70
2022/08/19 12:18:03;;;;;;;8.57;5.90;;;;;;;;;;5051173;28;20194;-70
2022/08/19 12:20:30;;;;;;;7.33;6.17;;;;;;;;;;5033102;28;20226;-69
2022/08/19 12:23:01;;;;;;;7.20;5.47;;;;;;;;;;5051037;28;20213;-69
2022/08/19 12:25:27;;;;;;;10.17;6.13;;;;;;;;;;5051071;28;20612;-70
2022/08/19 12:27:54;;;;;;;15.03;6.13;;;;;;;;;;5050747;28;20300;-69
2022/08/19 12:30:23;;;;;;;8.17;5.83;;;;;;;;;;5050875;28;20179;-71
2022/08/19 12:32:51;;;;;;;11.10;6.40;;;;;;;;;;5050738;28;20236;-69
2022/08/19 12:35:36;;;;;;;10.03;5.93;;;;;;;;;;5048199;28;20210;-70
2022/08/19 12:38:02;;;;;;;9.63;5.67;;;;;;;;;;5033171;28;21036;-70
2022/08/19 12:40:29;;;;;;;11.37;5.83;;;;;;;;;;5049457;28;20244;-70
2022/08/19 12:42:56;;;;;;;9.50;5.60;;;;;;;;;;5049317;28;20669;-70
2022/08/19 12:45:23;;;;;;;11.17;5.70;;;;;;;;;;5032899;28;20617;-70
2022/08/19 12:48:07;;;;;;;7.03;5.70;;;;;;;;;;5048643;28;20210;-70
2022/08/19 12:50:54;;;;;;;7.23;5.60;;;;;;;;;;5050481;28;20260;-70
2022/08/19 12:53:21;;;;;;;12.13;6.07;;;;;;;;;;5050713;28;20673;-70
2022/08/19 12:55:47;;;;;;;13.40;5.80;;;;;;;;;;5032707;28;20232;-70
2022/08/19 12:58:14;;;;;;;9.10;5.87;;;;;;;;;;5050891;28;20190;-69
2022/08/19 13:00:58;;;;;;;11.27;6.43;;;;;;;;;;5050314;28;20194;-70
2022/08/19 13:03:29;;;;;;;9.50;5.87;;;;;;;;;;5050017;28;21119;-70
2022/08/19 13:05:56;;;;;;;10.27;5.50;;;;;;;;;;5032558;28;20230;-70
2022/08/19 13:08:23;;;;;;;10.23;6.00;;;;;;;;;;5048595;28;20265;-70
2022/08/19 13:10:50;;;;;;;7.20;5.63;;;;;;;;;;5050190;28;20182;-70
2022/08/19 13:13:17;;;;;;;8.20;5.90;;;;;;;;;;5047942;28;20274;-72
2022/08/19 13:15:45;;;;;;;10.07;6.30;;;;;;;;;;5038082;28;20233;-68
2022/08/19 13:18:12;;;;;;;10.83;6.17;;;;;;;;;;5049819;28;20191;-69
2022/08/19 13:20:40;;;;;;;12.23;6.40;;;;;;;;;;5026947;28;20198;-68
2022/08/19 13:23:08;;;;;;;9.90;6.33;;;;;;;;;;5040130;28;20279;-68
2022/08/19 13:25:35;;;;;;;10.17;6.60;;;;;;;;;;5048894;28;20193;-69
2022/08/19 13:28:02;;;;;;;9.73;6.10;;;;;;;;;;5049952;28;21066;-69
2022/08/19 13:33:15;;;;;;;9.40;6.03;;;;;;;;;;5050256;28;20260;-69
2022/08/19 13:35:46;;;;;;;10.87;6.00;;;;;;;;;;5048063;28;20190;-71
2022/08/19 13:38:13;;;;;;;7.27;5.93;;;;;;;;;;5049912;28;20657;-69
2022/08/19 13:40:40;;;;;;;13.63;6.17;;;;;;;;;;5048311;28;20625;-70
2022/08/19 13:43:09;;;;;;;7.27;6.00;;;;;;;;;;5048319;28;20277;-69
2022/08/19 13:45:53;;;;;;;8.60;6.40;;;;;;;;;;5047821;28;20190;-70
2022/08/19 13:48:20;;;;;;;10.07;6.70;;;;;;;;;;5045760;28;20233;-69
2022/08/19 13:50:47;;;;;;;9.07;6.07;;;;;;;;;;5034914;28;20218;-69
2022/08/19 13:53:14;;;;;;;11.07;6.20;;;;;;;;;;5049265;28;20198;-69
2022/08/19 13:55:41;;;;;;;8.87;5.77;;;;;;;;;;5048021;28;20197;-69
2022/08/19 13:58:09;;;;;;;7.27;6.00;;;;;;;;;;5048203;28;20191;-69
2022/08/19 14:00:37;;;;;;;9.43;6.23;;;;;;;;;;5031385;28;20211;-70
2022/08/19 14:03:21;;;;;;;15.53;6.47;;;;;;;;;;5048164;28;20189;-69
2022/08/19 14:05:48;;;;;;;9.53;6.27;;;;;;;;;;5048875;28;20187;-69
2022/08/19 14:08:32;;;;;;;11.37;6.13;;;;;;;;;;5048857;28;20735;-70
2022/08/19 14:10:59;;;;;;;11.80;6.63;;;;;;;;;;5048930;28;20252;-69
2022/08/19 14:13:33;;;;;;;12.57;6.23;;;;;;;;;;5048092;28;20273;-69
2022/08/19 14:16:00;;;;;;;8.70;6.10;;;;;;;;;;5047873;28;20195;-70
2022/08/19 14:18:27;;;;;;;8.47;6.00;;;;;;;;;;5047542;28;20262;-69
2022/08/19 14:20:56;;;;;;;8.73;6.60;;;;;;;;;;5031491;28;20201;-69
2022/08/19 14:23:24;;;;;;;8.83;6.40;;;;;;;;;;5048863;28;20191;-69
2022/08/19 14:25:51;;;;;;;11.50;6.40;;;;;;;;;;5048875;28;20191;-69
2022/08/19 14:28:20;;;;;;;11.90;7.07;;;;;;;;;;5048830;28;20293;-70
2022/08/19 14:31:05;;;;;;;7.67;6.43;;;;;;;;;;5048839;28;20178;-69
2022/08/19 14:33:32;;;;;;;10.10;6.17;;;;;;;;;;5048819;28;20273;-69
2022/08/19 14:36:18;;;;;;;8.80;6.70;;;;;;;;;;5048680;28;20638;-69
2022/08/19 14:38:45;;;;;;;8.47;6.03;;;;;;;;;;5048494;28;20191;-68
2022/08/19 14:41:30;;;;;;;9.60;6.50;;;;;;;;;;5035316;28;20177;-69
2022/08/19 14:43:57;;;;;;;16.07;6.90;;;;;;;;;;5014221;28;20187;-69
2022/08/19 14:46:25;;;;;;;9.07;6.27;;;;;;;;;;5047496;28;20226;-68
2022/08/19 14:48:54;;;;;;;10.97;6.70;;;;;;;;;;5047140;28;20701;-69
2022/08/19 14:51:22;;;;;;;9.40;6.70;;;;;;;;;;5048603;28;20190;-69
2022/08/19 14:53:49;;;;;;;9.10;6.50;;;;;;;;;;5047452;28;20202;-69
2022/08/19 14:56:21;;;;;;;9.83;6.53;;;;;;;;;;5047120;28;20688;-69
2022/08/19 14:58:51;;;;;;;10.17;6.97;;;;;;;;;;5047560;28;20198;-69
2022/08/19 15:01:20;;;;;;;11.67;7.10;;;;;;;;;;5048327;28;20249;-69
2022/08/19 15:03:47;;;;;;;12.03;6.70;;;;;;;;;;5048432;28;20182;-69
2022/08/19 15:06:13;;;;;;;9.70;6.80;;;;;;;;;;5047325;28;20289;-69
2022/08/19 15:08:41;;;;;;;9.63;6.50;;;;;;;;;;5034753;28;20321;-70
2022/08/19 15:11:09;;;;;;;9.10;6.33;;;;;;;;;;5049642;28;20237;-69
2022/08/19 15:13:36;;;;;;;8.90;6.63;;;;;;;;;;5052248;28;20218;-70
2022/08/19 15:16:03;;;;;;;9.60;6.60;;;;;;;;;;5051313;28;20249;-69
2022/08/19 15:18:30;;;;;;;11.33;6.53;;;;;;;;;;5051994;28;20210;-69
2022/08/19 15:20:57;;;;;;;8.67;6.77;;;;;;;;;;5052201;28;20249;-69
2022/08/19 15:23:24;;;;;;;10.20;6.37;;;;;;;;;;5051697;28;20194;-70
2022/08/19 15:25:54;;;;;;;10.03;6.87;;;;;;;;;;5050419;28;20187;-69
2022/08/19 15:28:22;;;;;;;9.23;6.70;;;;;;;;;;5051881;28;20317;-70